createdAt,value
2018-04-06T00:00:00.184Z,15.10
2018-04-06T00:01:00.137Z,16.60
2018-04-06T00:02:52.987Z,23.50
2018-04-06T00:03:52.956Z,22.40
2018-04-06T00:05:45.897Z,14.10
2018-04-06T00:06:45.806Z,18.80
2018-04-06T00:08:38.720Z,20.20
2018-04-06T00:09:38.659Z,16.70
2018-04-06T00:11:31.554Z,17.70
2018-04-06T00:12:31.512Z,22.40
2018-04-06T00:14:24.392Z,17.20
2018-04-06T00:15:24.365Z,16.90
2018-04-06T00:17:17.247Z,19.60
2018-04-06T00:18:17.252Z,17.10
2018-04-06T00:20:10.134Z,17.70
2018-04-06T00:21:10.066Z,17.10
2018-04-06T00:23:02.945Z,20.30
2018-04-06T00:24:03.494Z,19.90
2018-04-06T00:25:55.813Z,14.90
2018-04-06T00:26:55.773Z,13.20
2018-04-06T00:28:48.668Z,20.50
2018-04-06T00:29:48.632Z,19.90
2018-04-06T00:31:41.541Z,16.60
2018-04-06T00:32:41.478Z,19.30
2018-04-06T00:34:34.375Z,20.90
2018-04-06T00:35:34.337Z,18.80
2018-04-06T00:37:27.232Z,22.60
2018-04-06T00:38:27.182Z,17.60
2018-04-06T00:40:20.078Z,18.60
2018-04-06T00:41:20.045Z,19.70
2018-04-06T00:43:13.505Z,18.50
2018-04-06T00:44:12.898Z,17.50
2018-04-06T00:46:05.782Z,22.70
2018-04-06T00:47:05.747Z,19.00
2018-04-06T00:48:58.653Z,15.70
2018-04-06T00:49:58.601Z,20.30
2018-04-06T00:51:51.499Z,18.90
2018-04-06T00:52:51.447Z,20.60
2018-04-06T00:54:44.358Z,18.90
2018-04-06T00:55:44.296Z,16.70
2018-04-06T00:57:37.189Z,18.10
2018-04-06T00:58:37.147Z,18.40
2018-04-06T01:00:30.072Z,21.30
2018-04-06T01:01:30.005Z,23.10
2018-04-06T01:03:22.929Z,19.80
2018-04-06T01:04:22.858Z,19.00
2018-04-06T01:06:15.753Z,21.20
2018-04-06T01:07:15.712Z,22.90
2018-04-06T01:09:08.613Z,18.60
2018-04-06T01:10:08.574Z,19.70
2018-04-06T01:12:01.446Z,19.40
2018-04-06T01:13:01.414Z,18.90
2018-04-06T01:14:54.304Z,19.60
2018-04-06T01:15:54.265Z,22.90
2018-04-06T01:17:47.173Z,19.40
2018-04-06T01:18:47.110Z,22.50
2018-04-06T01:20:39.998Z,22.30
2018-04-06T01:21:39.996Z,25.40
2018-04-06T01:23:32.876Z,20.60
2018-04-06T01:24:33.398Z,24.10
2018-04-06T01:26:25.712Z,21.90
2018-04-06T01:27:25.668Z,21.40
2018-04-06T01:29:19.074Z,26.50
2018-04-06T01:30:19.021Z,21.60
2018-04-06T01:32:11.898Z,21.20
2018-04-06T01:33:11.853Z,23.60
2018-04-06T01:35:04.756Z,20.40
2018-04-06T01:36:04.726Z,19.10
2018-04-06T01:37:57.631Z,18.90
2018-04-06T01:38:57.567Z,21.50
2018-04-06T01:40:50.453Z,19.00
2018-04-06T01:41:50.417Z,17.60
2018-04-06T01:43:43.325Z,18.60
2018-04-06T01:44:43.274Z,23.30
2018-04-06T01:46:37.247Z,23.50
2018-04-06T01:47:36.618Z,19.30
2018-04-06T01:49:30.007Z,20.30
2018-04-06T01:50:29.967Z,27.20
2018-04-06T01:52:22.876Z,22.30
2018-04-06T01:53:22.818Z,21.70
2018-04-06T01:55:15.701Z,23.60
2018-04-06T01:56:15.667Z,22.80
2018-04-06T01:58:08.547Z,20.00
2018-04-06T01:59:08.515Z,19.00
2018-04-06T02:01:01.434Z,20.40
2018-04-06T02:02:01.373Z,24.00
2018-04-06T02:03:54.328Z,30.60
2018-04-06T02:04:54.231Z,30.20
2018-04-06T02:06:47.099Z,32.20
2018-04-06T02:07:47.067Z,28.10
2018-04-06T02:09:39.964Z,21.80
2018-04-06T02:10:39.911Z,20.90
2018-04-06T02:12:32.877Z,19.10
2018-04-06T02:13:32.763Z,17.60
2018-04-06T02:15:25.645Z,27.80
2018-04-06T02:16:25.612Z,22.10
2018-04-06T02:18:18.503Z,23.30
2018-04-06T02:19:18.461Z,23.30
2018-04-06T02:21:11.364Z,20.10
2018-04-06T02:22:11.309Z,17.60
2018-04-06T02:24:04.222Z,19.60
2018-04-06T02:25:04.177Z,19.00
2018-04-06T02:26:57.046Z,19.40
2018-04-06T02:27:57.018Z,21.60
2018-04-06T02:29:49.902Z,22.70
2018-04-06T02:30:49.872Z,22.30
2018-04-06T02:32:42.759Z,26.80
2018-04-06T02:33:42.725Z,25.20
2018-04-06T02:35:35.610Z,22.90
2018-04-06T02:36:35.594Z,22.80
2018-04-06T02:38:28.951Z,25.20
2018-04-06T02:39:28.913Z,20.30
2018-04-06T02:41:21.803Z,28.00
2018-04-06T02:42:21.762Z,22.50
2018-04-06T02:44:14.647Z,22.60
2018-04-06T02:45:14.618Z,23.00
2018-04-06T02:47:07.513Z,21.10
2018-04-06T02:48:07.470Z,21.50
2018-04-06T02:50:00.360Z,20.90
2018-04-06T02:51:00.316Z,24.20
2018-04-06T02:52:54.692Z,25.00
2018-04-06T02:53:54.663Z,23.30
2018-04-06T02:55:47.561Z,21.90
2018-04-06T02:56:47.514Z,25.30
2018-04-06T02:58:40.399Z,25.30
2018-04-06T02:59:40.366Z,19.30
2018-04-06T03:01:33.764Z,18.10
2018-04-06T03:02:33.720Z,19.50
2018-04-06T03:04:26.607Z,20.60
2018-04-06T03:05:26.574Z,23.60
2018-04-06T03:07:19.495Z,20.70
2018-04-06T03:08:19.419Z,24.20
2018-04-06T03:10:12.319Z,23.00
2018-04-06T03:11:12.269Z,24.60
2018-04-06T03:13:05.156Z,22.30
2018-04-06T03:14:05.131Z,23.10
2018-04-06T03:15:58.009Z,23.40
2018-04-06T03:16:57.970Z,23.90
2018-04-06T03:18:50.860Z,23.40
2018-04-06T03:19:50.821Z,22.30
2018-04-06T03:21:43.735Z,25.40
2018-04-06T03:22:43.671Z,20.20
2018-04-06T03:24:36.580Z,27.90
2018-04-06T03:25:36.525Z,21.80
2018-04-06T03:27:29.451Z,25.50
2018-04-06T03:28:29.380Z,27.10
2018-04-06T03:30:22.317Z,25.60
2018-04-06T03:31:22.237Z,22.80
2018-04-06T03:33:15.112Z,21.70
2018-04-06T03:34:15.083Z,21.90
2018-04-06T03:36:08.467Z,26.80
2018-04-06T03:37:08.424Z,25.70
2018-04-06T03:39:01.328Z,23.10
2018-04-06T03:40:01.281Z,24.20
2018-04-06T03:41:54.196Z,26.40
2018-04-06T03:42:54.129Z,29.50
2018-04-06T03:44:47.028Z,25.40
2018-04-06T03:45:46.978Z,26.10
2018-04-06T03:47:39.861Z,30.60
2018-04-06T03:48:39.829Z,31.20
2018-04-06T03:50:32.725Z,25.80
2018-04-06T03:51:32.679Z,24.80
2018-04-06T03:53:25.567Z,27.40
2018-04-06T03:54:25.532Z,28.30
2018-04-06T03:56:18.414Z,23.50
2018-04-06T03:57:18.379Z,25.10
2018-04-06T03:59:11.300Z,24.80
2018-04-06T04:00:11.243Z,24.30
2018-04-06T04:02:04.624Z,28.60
2018-04-06T04:03:04.579Z,25.70
2018-04-06T04:04:57.468Z,27.40
2018-04-06T04:05:57.450Z,27.50
2018-04-06T04:07:50.346Z,25.80
2018-04-06T04:08:50.286Z,24.90
2018-04-06T04:10:43.179Z,30.00
2018-04-06T04:11:43.148Z,31.10
2018-04-06T04:13:36.524Z,34.20
2018-04-06T04:14:36.482Z,35.40
2018-04-06T04:16:29.362Z,32.00
2018-04-06T04:17:29.349Z,30.10
2018-04-06T04:19:22.238Z,34.80
2018-04-06T04:20:22.193Z,28.90
2018-04-06T04:22:15.065Z,32.60
2018-04-06T04:23:15.044Z,30.30
2018-04-06T04:25:07.921Z,31.70
2018-04-06T04:26:07.880Z,37.30
2018-04-06T04:28:00.779Z,30.60
2018-04-06T04:29:00.741Z,31.60
2018-04-06T04:30:53.637Z,34.60
2018-04-06T04:31:53.586Z,35.90
2018-04-06T04:33:46.474Z,39.20
2018-04-06T04:34:46.434Z,34.70
2018-04-06T04:36:39.340Z,30.40
2018-04-06T04:37:39.284Z,33.50
2018-04-06T04:39:32.173Z,34.20
2018-04-06T04:40:32.138Z,38.10
2018-04-06T04:42:25.040Z,43.60
2018-04-06T04:43:24.987Z,35.80
2018-04-06T04:45:17.877Z,40.60
2018-04-06T04:46:17.836Z,35.70
2018-04-06T04:48:11.239Z,35.40
2018-04-06T04:49:11.180Z,36.40
2018-04-06T04:51:04.069Z,44.30
2018-04-06T04:52:04.045Z,45.10
2018-04-06T04:53:56.912Z,38.40
2018-04-06T04:54:56.879Z,39.60
2018-04-06T04:56:49.767Z,46.20
2018-04-06T04:57:49.735Z,46.40
2018-04-06T04:59:42.633Z,41.20
2018-04-06T05:00:42.584Z,44.40
2018-04-06T05:02:35.468Z,40.50
2018-04-06T05:03:35.432Z,39.60
2018-04-06T05:05:28.332Z,40.10
2018-04-06T05:06:28.296Z,39.90
2018-04-06T05:08:21.180Z,45.10
2018-04-06T05:09:21.140Z,40.00
2018-04-06T05:11:14.022Z,40.70
2018-04-06T05:12:14.010Z,40.10
2018-04-06T05:14:06.880Z,38.30
2018-04-06T05:15:06.844Z,40.20
2018-04-06T05:16:59.741Z,43.00
2018-04-06T05:17:59.696Z,41.10
2018-04-06T05:19:52.611Z,36.20
2018-04-06T05:20:52.544Z,39.10
2018-04-06T05:22:45.468Z,35.10
2018-04-06T05:23:45.397Z,36.10
2018-04-06T05:25:38.375Z,36.10
2018-04-06T05:26:38.242Z,40.70
2018-04-06T05:28:31.160Z,40.50
2018-04-06T05:29:31.090Z,36.00
2018-04-06T05:31:23.976Z,32.30
2018-04-06T05:32:23.955Z,35.70
2018-04-06T05:34:16.827Z,33.50
2018-04-06T05:35:16.799Z,31.20
2018-04-06T05:37:09.679Z,30.30
2018-04-06T05:38:09.662Z,33.50
2018-04-06T05:40:04.017Z,35.80
2018-04-06T05:41:03.993Z,29.80
2018-04-06T05:42:57.083Z,28.30
2018-04-06T05:43:56.843Z,27.40
2018-04-06T05:45:50.363Z,28.70
2018-04-06T05:46:50.190Z,25.40
2018-04-06T05:48:43.185Z,23.00
2018-04-06T05:49:43.032Z,23.30
2018-04-06T05:51:35.944Z,25.00
2018-04-06T05:52:35.883Z,24.90
2018-04-06T05:54:28.785Z,25.80
2018-04-06T05:55:28.760Z,23.80
2018-04-06T05:57:21.765Z,23.10
2018-04-06T05:58:21.619Z,26.60
2018-04-06T06:00:14.515Z,24.40
2018-04-06T06:01:14.502Z,22.90
2018-04-06T06:03:07.391Z,25.60
2018-04-06T06:04:08.095Z,23.80
2018-04-06T06:06:01.474Z,19.50
2018-04-06T06:07:00.419Z,17.70
2018-04-06T06:08:54.750Z,23.60
2018-04-06T06:09:54.435Z,22.70
2018-04-06T06:11:46.244Z,23.00
2018-04-06T06:12:46.124Z,26.90
2018-04-06T06:14:39.322Z,21.20
2018-04-06T06:15:39.699Z,22.30
2018-04-06T06:17:32.539Z,19.40
2018-04-06T06:18:32.348Z,19.10
2018-04-06T06:20:25.790Z,20.40
2018-04-06T06:21:25.728Z,19.40
2018-04-06T06:23:18.811Z,21.20
2018-04-06T06:24:18.598Z,25.60
2018-04-06T06:26:11.583Z,18.30
2018-04-06T06:27:11.437Z,16.60
2018-04-06T06:29:04.943Z,18.60
2018-04-06T06:30:04.808Z,17.60
2018-04-06T06:32:04.741Z,19.90
2018-04-06T06:32:58.992Z,20.50
2018-04-06T06:34:53.269Z,19.70
2018-04-06T06:35:51.989Z,21.70
2018-04-06T06:37:47.001Z,16.20
2018-04-06T06:38:43.438Z,16.90
2018-04-06T06:40:37.955Z,20.10
2018-04-06T06:42:53.534Z,17.50
2018-04-06T06:43:50.213Z,20.10
2018-04-06T06:45:43.293Z,18.10
2018-04-06T06:46:43.081Z,19.00
2018-04-06T06:48:36.171Z,20.90
2018-04-06T06:49:35.977Z,19.50
2018-04-06T06:51:28.832Z,20.00
2018-04-06T06:52:28.789Z,18.00
2018-04-06T06:54:22.415Z,18.90
2018-04-06T06:55:22.137Z,19.90
2018-04-06T06:57:15.295Z,17.80
2018-04-06T06:58:15.023Z,15.00
2018-04-06T07:00:08.639Z,19.40
2018-04-06T07:01:08.383Z,18.90
2018-04-06T07:03:01.473Z,17.30
2018-04-06T07:04:01.261Z,18.50
2018-04-06T07:05:54.326Z,16.60
2018-04-06T07:06:54.689Z,18.00
2018-04-06T07:08:47.334Z,18.00
2018-04-06T07:09:47.004Z,19.70
2018-04-06T07:11:40.953Z,14.60
2018-04-06T07:12:40.061Z,16.60
2018-04-06T07:14:33.441Z,20.00
2018-04-06T07:15:33.819Z,15.80
2018-04-06T07:17:26.755Z,15.40
2018-04-06T07:18:26.580Z,15.30
2018-04-06T07:20:20.213Z,13.30
2018-04-06T07:21:19.983Z,13.10
2018-04-06T07:23:13.498Z,11.60
2018-04-06T07:24:13.300Z,14.90
2018-04-06T07:26:07.016Z,18.20
2018-04-06T07:27:06.666Z,18.20
2018-04-06T07:29:00.261Z,15.70
2018-04-06T07:30:00.024Z,16.70
2018-04-06T07:31:53.745Z,13.40
2018-04-06T07:32:53.407Z,14.90
2018-04-06T07:34:47.035Z,15.90
2018-04-06T07:35:46.768Z,17.50
2018-04-06T07:37:39.807Z,13.70
2018-04-06T07:38:39.626Z,13.60
2018-04-06T07:40:33.146Z,12.10
2018-04-06T07:41:32.993Z,13.40
2018-04-06T07:43:26.548Z,11.40
2018-04-06T07:44:26.394Z,12.70
2018-04-06T07:46:19.759Z,16.30
2018-04-06T07:47:19.944Z,11.30
2018-04-06T07:49:12.888Z,15.40
2018-04-06T07:50:12.586Z,14.00
2018-04-06T07:52:06.229Z,15.20
2018-04-06T07:53:05.934Z,14.60
2018-04-06T07:54:59.504Z,13.20
2018-04-06T07:55:59.315Z,14.10
2018-04-06T07:57:52.392Z,15.80
2018-04-06T07:58:52.180Z,14.70
2018-04-06T08:00:45.225Z,10.80
2018-04-06T08:01:45.065Z,11.10
2018-04-06T08:03:38.446Z,12.10
2018-04-06T08:04:38.608Z,13.10
2018-04-06T08:06:31.807Z,11.30
2018-04-06T08:07:31.774Z,12.30
2018-04-06T08:09:24.919Z,11.20
2018-04-06T08:10:24.658Z,9.70
2018-04-06T08:12:17.743Z,12.10
2018-04-06T08:13:17.545Z,14.00
2018-04-06T08:15:10.618Z,9.00
2018-04-06T08:16:10.383Z,9.70
2018-04-06T08:18:03.280Z,11.20
2018-04-06T08:19:03.473Z,11.50
2018-04-06T08:20:56.892Z,11.60
2018-04-06T08:21:56.604Z,11.70
2018-04-06T08:23:50.017Z,9.90
2018-04-06T08:24:49.765Z,12.70
2018-04-06T08:26:42.938Z,15.50
2018-04-06T08:27:43.203Z,12.20
2018-04-06T08:29:35.759Z,9.10
2018-04-06T08:30:36.091Z,11.70
2018-04-06T08:32:29.184Z,10.60
2018-04-06T08:33:28.865Z,13.40
2018-04-06T08:35:22.060Z,11.50
2018-04-06T08:36:21.758Z,11.80
2018-04-06T08:38:14.848Z,10.10
2018-04-06T08:39:14.626Z,11.00
2018-04-06T08:41:07.847Z,11.70
2018-04-06T08:42:07.488Z,9.20
2018-04-06T08:44:01.105Z,12.30
2018-04-06T08:45:00.843Z,13.20
2018-04-06T08:46:54.062Z,9.30
2018-04-06T08:47:53.693Z,9.00
2018-04-06T08:49:46.609Z,11.20
2018-04-06T08:50:47.147Z,11.00
2018-04-06T08:52:40.224Z,12.70
2018-04-06T08:53:39.931Z,12.90
2018-04-06T08:55:33.095Z,8.00
2018-04-06T08:56:32.812Z,7.20
2018-04-06T08:58:26.082Z,8.90
2018-04-06T08:59:25.678Z,9.20
2018-04-06T09:01:19.195Z,8.80
2018-04-06T09:02:19.023Z,7.30
2018-04-06T09:04:12.680Z,9.50
2018-04-06T09:05:12.408Z,11.30
2018-04-06T09:07:05.618Z,9.10
2018-04-06T09:08:05.256Z,10.30
2018-04-06T09:09:58.879Z,10.40
2018-04-06T09:10:58.669Z,8.80
2018-04-06T09:12:52.009Z,10.80
2018-04-06T09:13:52.081Z,9.00
2018-04-06T09:15:45.367Z,8.30
2018-04-06T09:16:45.672Z,7.40
2018-04-06T09:18:38.407Z,10.30
2018-04-06T09:19:38.204Z,9.00
2018-04-06T09:21:31.892Z,9.90
2018-04-06T09:22:31.559Z,8.80
2018-04-06T09:24:24.842Z,8.40
2018-04-06T09:25:24.416Z,8.70
2018-04-06T09:27:17.606Z,8.80
2018-04-06T09:28:17.293Z,7.80
2018-04-06T09:30:10.472Z,10.80
2018-04-06T09:31:10.173Z,8.10
2018-04-06T09:33:03.256Z,8.80
2018-04-06T09:34:03.022Z,11.80
2018-04-06T09:35:56.083Z,10.00
2018-04-06T09:36:55.900Z,11.50
2018-04-06T09:38:49.504Z,9.20
2018-04-06T09:39:49.232Z,10.80
2018-04-06T09:41:42.626Z,8.30
2018-04-06T09:42:42.770Z,10.10
2018-04-06T09:44:36.207Z,10.60
2018-04-06T09:45:35.951Z,9.40
2018-04-06T09:47:29.110Z,8.10
2018-04-06T09:48:28.821Z,9.80
2018-04-06T09:50:22.518Z,9.70
2018-04-06T09:51:22.167Z,7.70
2018-04-06T09:53:15.284Z,7.00
2018-04-06T09:54:15.029Z,6.70
2018-04-06T09:56:08.132Z,7.70
2018-04-06T09:57:07.914Z,9.70
2018-04-06T09:59:01.000Z,9.00
2018-04-06T10:00:00.797Z,7.60
2018-04-06T10:01:54.392Z,6.10
2018-04-06T10:02:54.119Z,7.20
2018-04-06T10:04:47.187Z,8.50
2018-04-06T10:05:46.978Z,9.80
2018-04-06T10:07:40.250Z,9.60
2018-04-06T10:08:39.855Z,7.10
2018-04-06T10:10:33.796Z,7.00
2018-04-06T10:11:33.225Z,7.50
2018-04-06T10:13:26.872Z,10.90
2018-04-06T10:14:26.579Z,6.80
2018-04-06T10:16:20.253Z,8.20
2018-04-06T10:17:19.936Z,7.20
2018-04-06T10:19:12.847Z,7.50
2018-04-06T10:20:12.806Z,8.50
2018-04-06T10:22:06.746Z,7.50
2018-04-06T10:23:06.236Z,9.50
2018-04-06T10:24:58.763Z,12.10
2018-04-06T10:25:58.549Z,7.60
2018-04-06T10:27:51.423Z,9.50
2018-04-06T10:28:51.984Z,8.40
2018-04-06T10:30:44.477Z,8.70
2018-04-06T10:31:44.258Z,7.40
2018-04-06T10:33:37.861Z,9.60
2018-04-06T10:34:37.643Z,8.90
2018-04-06T10:36:31.206Z,6.60
2018-04-06T10:37:30.988Z,6.00
2018-04-06T10:39:23.927Z,7.10
2018-04-06T10:40:23.872Z,7.10
2018-04-06T10:42:16.750Z,9.20
2018-04-06T10:43:16.721Z,5.50
2018-04-06T10:45:10.093Z,5.00
2018-04-06T10:46:09.906Z,6.80
2018-04-06T10:48:02.998Z,9.30
2018-04-06T10:49:02.760Z,6.80
2018-04-06T10:50:55.854Z,6.20
2018-04-06T10:51:56.178Z,7.10
2018-04-06T10:53:49.222Z,6.90
2018-04-06T10:54:48.972Z,10.10
2018-04-06T10:56:42.602Z,9.00
2018-04-06T10:57:42.328Z,8.10
2018-04-06T10:59:35.956Z,9.90
2018-04-06T11:00:35.206Z,8.10
2018-04-06T11:02:28.098Z,8.70
2018-04-06T11:03:28.086Z,6.90
2018-04-06T11:05:21.797Z,8.60
2018-04-06T11:06:21.454Z,10.30
2018-04-06T11:08:14.482Z,8.30
2018-04-06T11:09:14.297Z,9.30
2018-04-06T11:11:07.513Z,6.20
2018-04-06T11:12:07.170Z,6.10
2018-04-06T11:14:00.256Z,6.30
2018-04-06T11:15:00.593Z,10.30
2018-04-06T11:16:53.667Z,6.80
2018-04-06T11:17:53.387Z,6.50
2018-04-06T11:19:47.024Z,8.50
2018-04-06T11:20:46.752Z,7.50
2018-04-06T11:22:39.913Z,4.80
2018-04-06T11:23:39.626Z,5.10
2018-04-06T11:25:32.699Z,8.30
2018-04-06T11:26:32.480Z,8.40
2018-04-06T11:28:25.639Z,8.00
2018-04-06T11:29:25.374Z,8.10
2018-04-06T11:31:18.519Z,6.80
2018-04-06T11:32:18.224Z,8.10
2018-04-06T11:34:11.836Z,5.80
2018-04-06T11:35:11.570Z,6.40
2018-04-06T11:37:04.710Z,6.50
2018-04-06T11:38:04.509Z,6.40
2018-04-06T11:39:57.366Z,6.10
2018-04-06T11:40:57.322Z,6.00
2018-04-06T11:42:50.208Z,6.90
2018-04-06T11:43:50.185Z,8.10
2018-04-06T11:45:43.816Z,4.80
2018-04-06T11:46:43.536Z,6.20
2018-04-06T11:48:36.664Z,5.90
2018-04-06T11:49:36.441Z,5.60
2018-04-06T11:51:29.536Z,7.40
2018-04-06T11:52:29.295Z,6.70
2018-04-06T11:54:22.258Z,5.40
2018-04-06T11:55:22.368Z,5.30
2018-04-06T11:57:15.208Z,6.80
2018-04-06T11:58:15.009Z,6.80
2018-04-06T12:00:08.566Z,12.10
2018-04-06T12:01:08.378Z,10.20
2018-04-06T12:03:01.996Z,10.70
2018-04-06T12:04:01.745Z,7.30
2018-04-06T12:05:55.332Z,6.30
2018-04-06T12:06:54.594Z,7.00
2018-04-06T12:08:47.793Z,10.70
2018-04-06T12:09:47.550Z,9.30
2018-04-06T12:11:40.963Z,7.10
2018-04-06T12:12:40.993Z,8.20
2018-04-06T12:14:34.823Z,9.30
2018-04-06T12:15:34.252Z,8.90
2018-04-06T12:17:27.417Z,7.20
2018-04-06T12:18:27.129Z,7.30
2018-04-06T12:20:20.299Z,5.70
2018-04-06T12:21:20.014Z,6.50
2018-04-06T12:23:13.146Z,6.40
2018-04-06T12:24:12.891Z,9.90
2018-04-06T12:26:08.559Z,14.60
2018-04-06T12:27:05.733Z,11.50
2018-04-06T12:28:59.004Z,7.90
2018-04-06T12:29:58.593Z,6.80
2018-04-06T12:31:52.004Z,9.30
2018-04-06T12:32:51.967Z,10.40
2018-04-06T12:34:45.572Z,10.10
2018-04-06T12:35:45.319Z,6.80
2018-04-06T12:37:38.498Z,11.00
2018-04-06T12:38:38.197Z,12.50
2018-04-06T12:40:31.088Z,10.10
2018-04-06T12:41:31.079Z,9.50
2018-04-06T12:43:24.440Z,6.30
2018-04-06T12:44:24.415Z,7.20
2018-04-06T12:46:17.611Z,6.30
2018-04-06T12:47:17.292Z,7.60
2018-04-06T12:49:10.933Z,9.10
2018-04-06T12:50:10.656Z,10.60
2018-04-06T12:52:03.553Z,9.20
2018-04-06T12:53:03.545Z,9.70
2018-04-06T12:54:56.434Z,6.60
2018-04-06T12:55:56.394Z,7.30
2018-04-06T12:57:49.689Z,6.50
2018-04-06T12:58:49.705Z,6.40
2018-04-06T13:00:42.502Z,7.00
2018-04-06T13:01:42.133Z,5.90
2018-04-06T13:03:35.749Z,4.50
2018-04-06T13:04:35.565Z,6.00
2018-04-06T13:06:28.658Z,8.90
2018-04-06T13:07:28.369Z,7.30
2018-04-06T13:09:21.515Z,10.80
2018-04-06T13:10:21.300Z,7.70
2018-04-06T13:12:14.388Z,11.10
2018-04-06T13:13:14.122Z,12.40
2018-04-06T13:15:07.770Z,7.30
2018-04-06T13:16:07.480Z,4.50
2018-04-06T13:18:01.115Z,6.40
2018-04-06T13:19:00.869Z,4.50
2018-04-06T13:20:53.972Z,6.40
2018-04-06T13:21:53.726Z,5.50
2018-04-06T13:23:47.335Z,5.80
2018-04-06T13:24:47.100Z,7.80
2018-04-06T13:26:40.761Z,4.80
2018-04-06T13:27:40.461Z,4.50
2018-04-06T13:29:34.157Z,4.10
2018-04-06T13:30:33.836Z,5.00
2018-04-06T13:32:27.496Z,6.70
2018-04-06T13:33:27.204Z,6.50
2018-04-06T13:35:20.425Z,4.10
2018-04-06T13:36:20.301Z,4.50
2018-04-06T13:38:13.188Z,4.30
2018-04-06T13:39:12.947Z,4.30
2018-04-06T13:41:06.736Z,4.70
2018-04-06T13:42:06.302Z,5.20
2018-04-06T13:43:59.480Z,7.40
2018-04-06T13:44:59.481Z,5.60
2018-04-06T13:46:52.816Z,5.70
2018-04-06T13:47:53.141Z,8.00
2018-04-06T13:49:46.237Z,4.40
2018-04-06T13:50:45.902Z,5.40
2018-04-06T13:52:39.904Z,5.40
2018-04-06T13:53:39.838Z,4.70
2018-04-06T13:55:32.815Z,5.60
2018-04-06T13:56:32.713Z,6.90
2018-04-06T13:58:26.388Z,3.70
2018-04-06T13:59:26.095Z,5.90
2018-04-06T14:01:19.108Z,3.80
2018-04-06T14:02:18.954Z,5.50
2018-04-06T14:04:12.704Z,7.80
2018-04-06T14:05:12.294Z,7.30
2018-04-06T14:07:05.486Z,5.20
2018-04-06T14:08:05.175Z,4.90
2018-04-06T14:09:58.440Z,5.20
2018-04-06T14:10:58.076Z,6.20
2018-04-06T14:12:51.137Z,6.70
2018-04-06T14:13:51.493Z,4.00
2018-04-06T14:15:44.843Z,5.50
2018-04-06T14:16:44.264Z,5.20
2018-04-06T14:18:37.174Z,5.60
2018-04-06T14:19:37.167Z,6.00
2018-04-06T14:21:30.303Z,5.90
2018-04-06T14:22:30.006Z,8.80
2018-04-06T14:24:23.159Z,4.20
2018-04-06T14:25:22.923Z,5.20
2018-04-06T14:27:16.466Z,6.90
2018-04-06T14:28:16.235Z,5.20
2018-04-06T14:30:09.394Z,7.00
2018-04-06T14:31:09.268Z,7.10
2018-04-06T14:33:02.240Z,6.90
2018-04-06T14:34:01.997Z,4.70
2018-04-06T14:35:56.824Z,8.90
2018-04-06T14:36:55.804Z,6.80
2018-04-06T14:38:48.297Z,8.20
2018-04-06T14:39:48.225Z,6.60
2018-04-06T14:41:41.828Z,7.40
2018-04-06T14:42:41.632Z,7.60
2018-04-06T14:44:34.528Z,4.60
2018-04-06T14:45:34.501Z,6.10
2018-04-06T14:47:27.627Z,7.30
2018-04-06T14:48:27.357Z,6.70
2018-04-06T14:50:20.567Z,8.00
2018-04-06T14:51:20.224Z,9.40
2018-04-06T14:53:13.957Z,6.00
2018-04-06T14:54:13.616Z,5.50
2018-04-06T14:56:06.769Z,5.30
2018-04-06T14:57:06.433Z,4.40
2018-04-06T14:59:00.277Z,5.60
2018-04-06T15:00:00.390Z,8.20
2018-04-06T15:01:52.955Z,4.20
2018-04-06T15:02:52.715Z,5.70
2018-04-06T15:04:46.677Z,7.20
2018-04-06T15:05:46.051Z,7.30
2018-04-06T15:07:39.279Z,5.20
2018-04-06T15:08:38.953Z,5.90
2018-04-06T15:10:32.219Z,4.30
2018-04-06T15:11:31.937Z,5.40
2018-04-06T15:13:25.022Z,4.40
2018-04-06T15:14:24.670Z,5.60
2018-04-06T15:16:18.385Z,5.90
2018-04-06T15:17:18.036Z,6.60
2018-04-06T15:19:11.156Z,4.50
2018-04-06T15:20:11.147Z,5.80
2018-04-06T15:22:04.572Z,6.90
2018-04-06T15:23:04.294Z,7.50
2018-04-06T15:24:57.174Z,4.50
2018-04-06T15:25:57.168Z,5.40
2018-04-06T15:27:50.607Z,5.30
2018-04-06T15:28:50.026Z,8.00
2018-04-06T15:30:43.130Z,4.40
2018-04-06T15:31:42.903Z,5.90
2018-04-06T15:33:35.783Z,5.80
2018-04-06T15:34:35.754Z,7.80
2018-04-06T15:36:29.468Z,9.70
2018-04-06T15:37:29.119Z,6.30
2018-04-06T15:39:22.018Z,7.00
2018-04-06T15:40:21.992Z,6.50
2018-04-06T15:42:15.391Z,6.20
2018-04-06T15:43:15.346Z,5.40
2018-04-06T15:45:08.750Z,4.30
2018-04-06T15:46:08.986Z,6.90
2018-04-06T15:48:01.775Z,5.30
2018-04-06T15:49:01.577Z,6.30
2018-04-06T15:50:54.976Z,7.10
2018-04-06T15:51:54.948Z,6.60
2018-04-06T15:53:48.074Z,5.90
2018-04-06T15:54:47.840Z,6.10
2018-04-06T15:56:40.959Z,5.80
2018-04-06T15:57:40.691Z,5.10
2018-04-06T15:59:34.351Z,7.00
2018-04-06T16:00:34.059Z,7.40
2018-04-06T16:02:27.229Z,5.80
2018-04-06T16:03:26.924Z,6.60
2018-04-06T16:05:19.891Z,4.90
2018-04-06T16:06:19.798Z,5.90
2018-04-06T16:08:13.255Z,5.20
2018-04-06T16:09:13.167Z,5.30
2018-04-06T16:11:06.185Z,5.30
2018-04-06T16:12:06.049Z,6.00
2018-04-06T16:13:59.050Z,6.00
2018-04-06T16:14:58.882Z,4.60
2018-04-06T16:16:51.952Z,4.40
2018-04-06T16:17:51.784Z,4.10
2018-04-06T16:19:44.750Z,5.00
2018-04-06T16:20:44.725Z,6.70
2018-04-06T16:22:37.872Z,5.50
2018-04-06T16:23:37.637Z,5.10
2018-04-06T16:25:31.171Z,4.40
2018-04-06T16:26:30.956Z,4.70
2018-04-06T16:28:24.512Z,6.20
2018-04-06T16:29:24.406Z,6.60
2018-04-06T16:31:17.450Z,4.50
2018-04-06T16:32:17.242Z,4.80
2018-04-06T16:34:10.245Z,4.80
2018-04-06T16:35:10.040Z,3.70
2018-04-06T16:37:03.126Z,5.80
2018-04-06T16:38:02.922Z,5.80
2018-04-06T16:39:56.052Z,4.80
2018-04-06T16:42:09.494Z,6.10
2018-04-06T16:43:09.463Z,4.90
2018-04-06T16:45:02.293Z,4.70
2018-04-06T16:46:02.069Z,4.30
2018-04-06T16:47:55.721Z,6.40
2018-04-06T16:48:55.439Z,5.90
2018-04-06T16:50:48.379Z,5.10
2018-04-06T16:51:48.595Z,3.50
2018-04-06T16:53:41.524Z,4.00
2018-04-06T16:54:41.156Z,4.30
2018-04-06T16:56:34.791Z,5.60
2018-04-06T16:57:34.536Z,8.20
2018-04-06T16:59:27.840Z,6.30
2018-04-06T17:00:27.758Z,7.10
2018-04-06T17:02:20.355Z,5.40
2018-04-06T17:03:20.269Z,5.00
2018-04-06T17:05:13.979Z,10.20
2018-04-06T17:06:13.622Z,8.70
2018-04-06T17:08:07.369Z,8.30
2018-04-06T17:09:06.970Z,7.90
2018-04-06T17:11:01.187Z,5.80
2018-04-06T17:12:00.699Z,7.70
2018-04-06T17:13:54.209Z,10.40
2018-04-06T17:14:54.061Z,11.40
2018-04-06T17:16:46.993Z,12.00
2018-04-06T17:17:47.874Z,9.00
2018-04-06T17:19:39.966Z,21.80
2018-04-06T17:20:40.353Z,14.90
2018-04-06T17:22:33.038Z,7.90
2018-04-06T17:23:32.685Z,7.40
2018-04-06T17:25:27.754Z,7.40
2018-04-06T17:26:26.032Z,8.80
2018-04-06T17:28:19.035Z,6.00
2018-04-06T17:29:18.960Z,6.50
2018-04-06T17:31:12.379Z,10.60
2018-04-06T17:32:11.884Z,7.00
2018-04-06T17:34:05.206Z,11.00
2018-04-06T17:35:05.162Z,8.60
2018-04-06T17:36:58.796Z,5.20
2018-04-06T17:38:00.305Z,3.70
2018-04-06T17:39:51.565Z,9.10
2018-04-06T17:40:51.713Z,6.90
2018-04-06T17:42:45.733Z,8.80
2018-04-06T17:43:44.252Z,8.70
2018-04-06T17:45:37.271Z,5.20
2018-04-06T17:46:37.210Z,5.40
2018-04-06T17:48:31.551Z,5.20
2018-04-06T17:49:30.067Z,4.80
2018-04-06T17:51:24.000Z,6.70
2018-04-06T17:52:23.373Z,6.80
2018-04-06T17:54:17.551Z,8.20
2018-04-06T17:55:16.739Z,6.00
2018-04-06T17:57:10.387Z,7.30
2018-04-06T17:58:10.409Z,9.50
2018-04-06T18:00:03.633Z,5.40
2018-04-06T18:01:02.961Z,5.60
2018-04-06T18:02:56.369Z,5.00
2018-04-06T18:03:56.314Z,5.70
2018-04-06T18:05:49.229Z,5.30
2018-04-06T18:06:49.180Z,6.80
2018-04-06T18:08:42.841Z,5.00
2018-04-06T18:09:42.544Z,5.80
2018-04-06T18:11:35.752Z,5.20
2018-04-06T18:12:35.407Z,5.00
2018-04-06T18:14:28.546Z,6.10
2018-04-06T18:15:28.382Z,5.90
2018-04-06T18:17:21.180Z,7.30
2018-04-06T18:18:21.143Z,10.10
2018-04-06T18:20:14.820Z,6.80
2018-04-06T18:21:14.498Z,10.00
2018-04-06T18:23:08.979Z,5.60
2018-04-06T18:24:07.473Z,4.80
2018-04-06T18:26:00.487Z,5.60
2018-04-06T18:27:00.221Z,5.60
2018-04-06T18:28:54.671Z,4.10
2018-04-06T18:29:53.604Z,4.00
2018-04-06T18:31:47.025Z,4.90
2018-04-06T18:32:47.357Z,6.30
2018-04-06T18:34:44.371Z,4.80
2018-04-06T18:35:41.076Z,4.70
2018-04-06T18:37:35.176Z,6.10
2018-04-06T18:38:34.464Z,4.00
2018-04-06T18:40:28.012Z,3.90
2018-04-06T18:41:27.855Z,3.30
2018-04-06T18:43:21.446Z,5.60
2018-04-06T18:44:21.746Z,6.30
2018-04-06T18:46:14.238Z,5.70
2018-04-06T18:47:14.020Z,5.00
2018-04-06T18:49:06.916Z,4.80
2018-04-06T18:50:06.923Z,5.20
2018-04-06T18:52:01.116Z,4.80